ZWWW/URC METAR and TAF weather

Enter ICAO airport designator
Station Type Date Time Source
ZWWW METAR 2020/01/19 14:30 UTC NOAA

ZWWW 191430Z VRB01MPS 2500 BR NSC M15/M17 Q1020 NOSIG


Station Type Date Time Source
ZWWW Decoded METAR 2020/01/19 14:30 UTC NOAA

Urum-Qi / Diwopu, China (ZWWW) 43-54N 087-28E
Jan 19, 2020 - 09:30 AM EST / 2020.01.19 1430 UTC
Wind: Variable at 2 MPH (2 KT):0
Visibility: 1 mile(s):0
Weather: mist
Temperature: 5 F (-15 C)
Dew Point: 1 F (-17 C)
Relative Humidity: 84%
Pressure (altimeter): 30.12 in. Hg (1020 hPa)
ob: ZWWW 191430Z VRB01MPS 2500 BR NSC M15/M17 Q1020 NOSIG
cycle: 14

Station Type Date Time Source
ZWWW TAF 2020/01/19 12:03 UTC NOAA

TAF ZWWW 190903Z 1912/2012 02002MPS 1100 BR NSC TXM12/2009Z TNM19/1923Z
BECMG 1915/1916 0700 FZFG BKN006
BECMG 1921/1922 1100 BR BKN011
BECMG 2003/2004 1600 NSC

Example: see airport list